Time;durP1;ratioP1;P1;durP2;ratioP2;P2;SDS_P1;SDS_P2;PMS_P1;PMS_P2;Temp;Humidity;BMP_temperature;BMP_pressure;BME280_temperature;BME280_humidity;BME280_pressure;Samples;Min_cycle;Max_cycle;Signal;HPM_P1;HPM_P2
2022/12/03 00:02:12;;;;;;;24.63;13.02;;;;;;;3.46;100.00;102368.94;5018074;28;20049;-65
2022/12/03 00:04:39;;;;;;;29.25;13.57;;;;;;;3.50;100.00;102367.91;5009770;28;20073;-66
2022/12/03 00:07:05;;;;;;;24.77;12.32;;;;;;;3.47;100.00;102355.06;5021141;28;20068;-65
2022/12/03 00:09:31;;;;;;;25.20;12.45;;;;;;;3.49;100.00;102358.44;5028915;28;20059;-65
2022/12/03 00:11:58;;;;;;;27.20;13.48;;;;;;;3.50;100.00;102354.09;5031735;28;20041;-65
2022/12/03 00:14:24;;;;;;;27.92;13.75;;;;;;;3.53;100.00;102356.56;5011792;28;20058;-65
2022/12/03 00:16:50;;;;;;;25.20;12.65;;;;;;;3.56;100.00;102357.25;5032019;28;20045;-65
2022/12/03 00:19:17;;;;;;;26.27;12.95;;;;;;;3.54;99.76;102359.06;5027991;28;20057;-65
2022/12/03 00:21:43;;;;;;;26.77;13.77;;;;;;;3.54;100.00;102353.88;5011249;28;20537;-65
2022/12/03 00:24:09;;;;;;;28.83;13.77;;;;;;;3.58;100.00;102352.03;5026504;28;20107;-65
2022/12/03 00:26:36;;;;;;;26.13;13.57;;;;;;;3.52;100.00;102357.47;5024502;28;20057;-65
2022/12/03 00:29:02;;;;;;;28.02;14.02;;;;;;;3.51;100.00;102348.84;5018452;28;20050;-65
2022/12/03 00:31:28;;;;;;;27.05;13.48;;;;;;;3.53;100.00;102348.78;5013229;28;20053;-65
2022/12/03 00:33:55;;;;;;;24.83;13.50;;;;;;;3.49;100.00;102344.59;5015110;28;20069;-65
2022/12/03 00:36:21;;;;;;;25.40;13.13;;;;;;;3.46;100.00;102345.59;5022750;28;20049;-66
2022/12/03 00:38:48;;;;;;;26.67;12.90;;;;;;;3.48;100.00;102343.75;5016937;28;20053;-65
2022/12/03 00:41:14;;;;;;;26.65;13.43;;;;;;;3.47;100.00;102339.50;5022165;28;20433;-65
2022/12/03 00:43:41;;;;;;;25.92;14.10;;;;;;;3.51;100.00;102340.22;5014397;28;20051;-65
2022/12/03 00:46:07;;;;;;;26.83;13.73;;;;;;;3.53;100.00;102338.41;5012442;28;20058;-66
2022/12/03 00:48:33;;;;;;;26.60;13.18;;;;;;;3.52;100.00;102347.09;5024939;28;21766;-66
2022/12/03 00:51:00;;;;;;;30.48;15.45;;;;;;;3.47;100.00;102333.44;5025462;28;20049;-65
2022/12/03 00:53:26;;;;;;;26.42;13.32;;;;;;;3.50;100.00;102336.75;5025298;28;20123;-65
2022/12/03 00:55:53;;;;;;;27.85;13.50;;;;;;;3.57;100.00;102339.97;5011458;28;20045;-65
2022/12/03 00:58:19;;;;;;;26.90;13.60;;;;;;;3.60;100.00;102341.59;5017641;28;20791;-66
2022/12/03 01:00:45;;;;;;;25.63;13.95;;;;;;;3.58;100.00;102340.81;5011095;28;20123;-65
2022/12/03 01:03:12;;;;;;;26.73;13.80;;;;;;;3.60;100.00;102337.22;5027255;28;20494;-66
2022/12/03 01:05:38;;;;;;;27.92;14.00;;;;;;;3.59;100.00;102339.88;5019489;28;20426;-64
2022/12/03 01:08:04;;;;;;;28.88;14.38;;;;;;;3.61;100.00;102336.34;5018540;28;20472;-65
2022/12/03 01:10:31;;;;;;;25.83;14.27;;;;;;;3.63;100.00;102341.47;5019144;28;20053;-65
2022/12/03 01:12:57;;;;;;;25.52;13.75;;;;;;;3.55;100.00;102346.97;5023193;28;20058;-65
2022/12/03 01:15:24;;;;;;;29.60;14.23;;;;;;;3.48;100.00;102329.97;5027602;28;20068;-66
2022/12/03 01:17:53;;;;;;;27.58;13.48;;;;;;;3.51;100.00;102333.28;5026453;28;20049;-66
2022/12/03 01:20:19;;;;;;;;;;;;;;;3.57;100.00;102342.56;4992039;28;20049;-65
2022/12/03 01:22:45;;;;;;;24.27;13.20;;;;;;;3.53;100.00;102335.81;5018429;28;19921;-65
2022/12/03 01:25:12;;;;;;;28.67;13.52;;;;;;;3.59;100.00;102330.38;5006195;28;20056;-65
2022/12/03 01:27:38;;;;;;;27.92;13.77;;;;;;;3.59;100.00;102338.16;5016357;28;20053;-66
2022/12/03 01:30:05;;;;;;;25.80;12.93;;;;;;;3.62;100.00;102327.63;5027579;28;20053;-65
2022/12/03 01:32:32;;;;;;;26.45;12.90;;;;;;;3.61;100.00;102331.16;5029097;28;20065;-65
2022/12/03 01:34:58;;;;;;;28.63;14.32;;;;;;;3.61;100.00;102331.16;5029553;28;20049;-66
2022/12/03 01:37:25;;;;;;;31.48;15.52;;;;;;;3.57;100.00;102334.78;5027837;28;20045;-65
2022/12/03 01:39:51;;;;;;;28.70;15.60;;;;;;;3.56;100.00;102328.72;5016932;28;20815;-66
2022/12/03 01:42:27;;;;;;;28.05;13.82;;;;;;;3.62;100.00;102324.19;5012527;28;20056;-66
2022/12/03 01:44:56;;;;;;;30.35;13.75;;;;;;;3.63;100.00;102323.31;5023246;28;20799;-65
2022/12/03 01:47:32;;;;;;;29.85;15.25;;;;;;;3.68;100.00;102327.38;5018063;28;20609;-65
2022/12/03 01:50:14;;;;;;;28.48;14.40;;;;;;;3.67;100.00;102319.66;5011235;28;20064;-65
2022/12/03 01:52:41;;;;;;;35.40;14.77;;;;;;;3.64;100.00;102315.44;5019882;28;20046;-65
2022/12/03 01:55:13;;;;;;;29.95;14.65;;;;;;;3.67;100.00;102311.88;5010610;28;20057;-65
2022/12/03 01:57:43;;;;;;;31.10;15.30;;;;;;;3.60;100.00;102319.06;5022912;28;20482;-65
2022/12/03 02:00:18;;;;;;;28.90;14.30;;;;;;;3.61;100.00;102322.50;5005423;28;20053;-65
2022/12/03 02:02:47;;;;;;;31.50;14.60;;;;;;;3.59;100.00;102316.53;5022867;28;20080;-65
2022/12/03 02:05:15;;;;;;;;;;;;;;;3.61;100.00;102312.97;5007877;28;20054;-65
2022/12/03 02:07:41;;;;;;;27.77;14.00;;;;;;;3.56;100.00;102323.53;5000708;28;19921;-65
2022/12/03 02:10:11;;;;;;;27.40;14.30;;;;;;;3.60;100.00;102318.22;5009869;28;20140;-65
2022/12/03 02:13:01;;;;;;;27.58;14.48;;;;;;;3.60;100.00;102316.47;5006442;28;20058;-65
2022/12/03 02:15:28;;;;;;;32.50;15.73;;;;;;;3.52;100.00;102319.38;5012043;28;20405;-65
2022/12/03 02:17:55;;;;;;;36.22;15.63;;;;;;;3.59;100.00;102319.13;5002354;28;20049;-66
2022/12/03 02:20:22;;;;;;;29.15;14.57;;;;;;;3.53;100.00;102310.69;5009018;28;20739;-66
2022/12/03 02:23:08;;;;;;;35.05;15.82;;;;;;;3.57;100.00;102311.44;4996291;28;20053;-65
2022/12/03 02:25:35;;;;;;;31.63;15.05;;;;;;;3.51;100.00;102309.09;5016928;28;20052;-66
2022/12/03 02:28:03;;;;;;;28.60;13.80;;;;;;;3.55;100.00;102311.47;5005327;28;20058;-65
2022/12/03 02:30:30;;;;;;;29.50;14.90;;;;;;;3.53;100.00;102309.88;5020824;28;20395;-65
2022/12/03 02:32:57;;;;;;;27.92;15.02;;;;;;;3.50;100.00;102315.16;5017392;28;20050;-65
2022/12/03 02:35:27;;;;;;;32.30;17.17;;;;;;;3.50;100.00;102320.34;5017212;28;20049;-65
2022/12/03 02:37:58;;;;;;;29.88;15.27;;;;;;;3.50;100.00;102313.41;5013685;28;20050;-66
2022/12/03 02:40:27;;;;;;;31.00;14.93;;;;;;;3.53;100.00;102313.31;5018084;28;20041;-65
2022/12/03 02:42:57;;;;;;;29.90;14.23;;;;;;;3.60;100.00;102302.66;5019228;28;20088;-64
2022/12/03 02:45:31;;;;;;;32.17;15.88;;;;;;;3.50;100.00;102299.59;5017098;28;20092;-65
2022/12/03 02:48:02;;;;;;;28.15;14.57;;;;;;;3.50;100.00;102307.38;5023880;28;20540;-66
2022/12/03 02:50:34;;;;;;;29.75;15.15;;;;;;;3.52;100.00;102310.75;5014444;28;20539;-68
2022/12/03 02:53:04;;;;;;;29.38;15.25;;;;;;;3.56;100.00;102307.97;5019707;28;20058;-65
2022/12/03 02:55:33;;;;;;;29.50;14.07;;;;;;;3.49;100.00;102305.69;5023233;28;20046;-65
2022/12/03 02:58:03;;;;;;;30.15;15.75;;;;;;;3.50;100.00;102299.59;5022299;28;20061;-65
2022/12/03 03:00:31;;;;;;;29.80;14.90;;;;;;;3.50;100.00;102308.22;5022523;28;20049;-66
2022/12/03 03:02:59;;;;;;;27.58;13.95;;;;;;;3.54;100.00;102307.19;5015035;28;20053;-66
2022/12/03 03:05:25;;;;;;;28.17;14.23;;;;;;;3.47;100.00;102310.09;5020315;28;20549;-65
2022/12/03 03:07:52;;;;;;;25.90;13.98;;;;;;;3.48;100.00;102294.47;5026563;28;20060;-65
2022/12/03 03:10:22;;;;;;;26.58;13.85;;;;;;;3.49;100.00;102296.19;5020684;28;20119;-66
2022/12/03 03:12:51;;;;;;;31.23;14.13;;;;;;;3.51;100.00;102296.13;5031877;28;20773;-65
2022/12/03 03:15:17;;;;;;;28.02;14.52;;;;;;;3.46;100.00;102296.28;5018238;28;20489;-65
2022/12/03 03:17:44;;;;;;;23.70;11.55;;;;;;;3.49;100.00;102296.19;5018606;28;20478;-65
2022/12/03 03:20:12;;;;;;;26.55;14.10;;;;;;;3.43;100.00;102292.97;5013648;28;20595;-65
2022/12/03 03:22:41;;;;;;;28.42;14.23;;;;;;;3.40;98.97;102308.69;5017911;28;20057;-65
2022/12/03 03:25:10;;;;;;;26.88;13.68;;;;;;;3.31;97.53;102302.09;5017992;28;20491;-65
2022/12/03 03:27:38;;;;;;;22.00;12.48;;;;;;;3.35;98.66;102308.84;5020359;28;20103;-65
2022/12/03 03:30:06;;;;;;;25.45;12.40;;;;;;;3.42;98.50;102306.88;5018711;28;20053;-65
2022/12/03 03:32:34;;;;;;;23.52;12.43;;;;;;;3.36;96.75;102300.19;5008877;28;20136;-65
2022/12/03 03:35:00;;;;;;;26.38;13.50;;;;;;;3.38;96.19;102300.97;5025025;28;20098;-65
2022/12/03 03:37:40;;;;;;;22.88;12.80;;;;;;;3.46;96.97;102293.69;5025372;28;20111;-65
2022/12/03 03:40:07;;;;;;;24.25;13.05;;;;;;;3.44;96.15;102294.69;5024793;28;20052;-66
2022/12/03 03:42:34;;;;;;;25.85;13.00;;;;;;;3.43;95.84;102295.56;5003387;28;20083;-65
2022/12/03 03:45:00;;;;;;;24.67;11.95;;;;;;;3.38;97.13;102280.22;5009923;28;20061;-65
2022/12/03 03:47:27;;;;;;;25.63;12.95;;;;;;;3.36;97.17;102290.63;5012442;28;20088;-65
2022/12/03 03:49:54;;;;;;;24.67;13.20;;;;;;;3.33;97.49;102283.00;5004157;28;20049;-66
2022/12/03 03:52:21;;;;;;;25.20;13.60;;;;;;;3.33;97.31;102277.81;5012724;28;20478;-66
2022/12/03 03:54:48;;;;;;;25.83;12.88;;;;;;;3.31;95.85;102277.03;5007602;28;20050;-65
2022/12/03 03:57:14;;;;;;;23.70;12.55;;;;;;;3.34;97.55;102274.31;5004909;28;20566;-65
2022/12/03 03:59:41;;;;;;;25.42;13.48;;;;;;;3.30;96.87;102282.28;5019250;28;20476;-65
2022/12/03 04:02:17;;;;;;;26.40;13.82;;;;;;;3.30;96.28;102272.75;5011333;28;20069;-66
2022/12/03 04:04:44;;;;;;;25.00;13.13;;;;;;;3.34;98.83;102273.47;5028079;28;20679;-65
2022/12/03 04:07:10;;;;;;;23.40;12.40;;;;;;;3.32;98.46;102276.13;5005050;28;20581;-65
2022/12/03 04:09:36;;;;;;;25.17;13.38;;;;;;;3.31;98.19;102270.97;5012503;28;20049;-65
2022/12/03 04:14:48;;;;;;;24.15;12.93;;;;;;;3.30;98.28;102279.69;5023549;28;20045;-64
2022/12/03 04:17:15;;;;;;;24.90;12.32;;;;;;;3.28;98.81;102271.97;5016149;28;20054;-66
2022/12/03 04:19:41;;;;;;;25.90;13.93;;;;;;;3.34;97.89;102270.88;5016094;28;20057;-65
2022/12/03 04:28:47;;;;;;;28.70;14.48;;;;;;;3.25;98.06;102277.25;4997750;28;20053;-65
2022/12/03 04:30:23;;;;;;;27.13;13.43;;;;;;;3.23;98.54;102279.09;5008803;28;20638;-65
2022/12/03 04:35:44;;;;;;;26.73;13.88;;;;;;;3.17;100.00;102280.19;5015467;28;20053;-65
2022/12/03 04:38:11;;;;;;;28.05;13.07;;;;;;;3.21;100.00;102267.09;5017073;28;20123;-66
2022/12/03 04:43:27;;;;;;;30.73;14.65;;;;;;;3.14;100.00;102274.28;5004632;28;20081;-65
2022/12/03 04:45:54;;;;;;;31.33;15.02;;;;;;;3.06;100.00;102261.63;5022497;28;20053;-66
2022/12/03 04:48:20;;;;;;;29.73;15.00;;;;;;;3.10;100.00;102270.97;5013929;28;20136;-65
2022/12/03 04:50:47;;;;;;;27.83;14.35;;;;;;;3.11;100.00;102274.41;5010866;28;20557;-65
2022/12/03 04:53:13;;;;;;;29.45;13.52;;;;;;;3.09;100.00;102273.63;5007821;28;20048;-65
2022/12/03 04:55:40;;;;;;;32.65;15.68;;;;;;;3.03;100.00;102274.72;5025899;28;20056;-65
2022/12/03 04:58:06;;;;;;;29.38;14.15;;;;;;;3.02;100.00;102274.75;5025965;28;20053;-65
2022/12/03 05:00:32;;;;;;;34.58;16.15;;;;;;;3.12;100.00;102269.16;5019431;28;20076;-65
2022/12/03 05:02:59;;;;;;;29.75;14.82;;;;;;;3.13;100.00;102265.66;5015583;28;20049;-65
2022/12/03 05:05:25;;;;;;;29.10;13.60;;;;;;;3.15;100.00;102265.59;5000547;28;20049;-65
2022/12/03 05:07:51;;;;;;;34.22;14.95;;;;;;;3.14;100.00;102272.53;5010052;28;20357;-65
2022/12/03 05:10:18;;;;;;;29.40;15.25;;;;;;;3.12;100.00;102270.91;5011505;28;20046;-65
2022/12/03 05:12:44;;;;;;;29.35;14.45;;;;;;;3.11;100.00;102274.41;5016895;28;20420;-65
2022/12/03 05:15:11;;;;;;;31.38;15.35;;;;;;;3.10;100.00;102272.72;5018710;28;20076;-66
2022/12/03 05:17:37;;;;;;;31.50;15.15;;;;;;;3.07;100.00;102270.25;5016040;28;20096;-65
2022/12/03 05:22:48;;;;;;;31.52;15.20;;;;;;;3.05;100.00;102262.53;5006867;28;20864;-65
2022/12/03 05:25:15;;;;;;;29.60;13.95;;;;;;;3.13;100.00;102267.41;5010439;28;20096;-65
2022/12/03 05:27:41;;;;;;;29.10;14.32;;;;;;;3.14;100.00;102261.31;5020684;28;20449;-66
2022/12/03 05:30:08;;;;;;;30.25;14.20;;;;;;;3.20;100.00;102253.28;5024354;28;20053;-66
2022/12/03 05:32:35;;;;;;;29.55;14.80;;;;;;;3.17;100.00;102258.59;5019371;28;20049;-66
2022/12/03 05:35:01;;;;;;;32.58;15.07;;;;;;;3.10;100.00;102254.59;5011630;28;20053;-65
2022/12/03 05:37:27;;;;;;;29.38;15.57;;;;;;;3.14;100.00;102249.19;5015493;28;20056;-66
2022/12/03 05:39:54;;;;;;;30.45;14.77;;;;;;;3.14;100.00;102241.41;5006179;28;20049;-66
2022/12/03 05:45:06;;;;;;;29.23;14.45;;;;;;;3.11;100.00;102244.13;5023449;28;20144;-66
2022/12/03 05:47:32;;;;;;;26.65;13.73;;;;;;;3.11;100.00;102244.13;4995126;28;20049;-66
2022/12/03 05:49:58;;;;;;;29.30;14.50;;;;;;;3.09;100.00;102245.09;5016827;28;20049;-66
2022/12/03 05:52:25;;;;;;;31.70;15.55;;;;;;;3.02;100.00;102243.66;5008591;28;20655;-66
2022/12/03 05:54:52;;;;;;;30.52;14.27;;;;;;;3.06;100.00;102247.81;5024178;28;20602;-66
2022/12/03 05:57:19;;;;;;;29.27;13.82;;;;;;;3.04;100.00;102247.03;5013508;28;20054;-66
2022/12/03 05:59:45;;;;;;;27.92;13.20;;;;;;;2.95;100.00;102236.13;5021421;28;20049;-66
2022/12/03 06:02:11;;;;;;;25.90;13.20;;;;;;;3.01;100.00;102245.41;5016621;28;20746;-66
2022/12/03 06:04:38;;;;;;;28.85;14.23;;;;;;;3.06;100.00;102243.50;5010482;28;20077;-65
2022/12/03 06:07:04;;;;;;;29.77;13.98;;;;;;;3.02;100.00;102241.94;5015443;28;20045;-66
2022/12/03 06:09:37;;;;;;;32.83;14.70;;;;;;;3.05;100.00;102241.78;5017578;28;20049;-66
2022/12/03 06:12:05;;;;;;;32.15;14.38;;;;;;;3.14;100.00;102236.22;5025710;28;20076;-66
2022/12/03 06:14:33;;;;;;;29.35;14.75;;;;;;;3.11;100.00;102233.75;5023246;28;20096;-65
2022/12/03 06:17:00;;;;;;;33.17;16.48;;;;;;;3.11;100.00;102228.56;5017947;28;20053;-66
2022/12/03 06:19:27;;;;;;;34.53;15.40;;;;;;;3.11;100.00;102225.13;5019572;28;20553;-65
2022/12/03 06:21:54;;;;;;;28.67;13.77;;;;;;;3.13;100.00;102234.53;5019432;28;20060;-65
2022/12/03 06:24:20;;;;;;;31.42;15.73;;;;;;;3.09;100.00;102227.78;5025918;28;20413;-66
2022/12/03 06:26:47;;;;;;;34.33;15.65;;;;;;;3.09;100.00;102221.78;5009528;28;20050;-65
2022/12/03 06:29:13;;;;;;;32.88;14.52;;;;;;;3.07;100.00;102227.00;5011908;28;20512;-65
2022/12/03 06:31:39;;;;;;;29.63;13.75;;;;;;;3.05;100.00;102220.22;5025222;28;20076;-65
2022/12/03 06:34:06;;;;;;;34.30;15.18;;;;;;;3.05;100.00;102222.81;5013065;28;20525;-65
2022/12/03 06:36:32;;;;;;;29.13;14.90;;;;;;;3.03;100.00;102227.22;5029040;28;20053;-65
2022/12/03 06:38:58;;;;;;;33.85;15.10;;;;;;;3.05;100.00;102225.41;5017969;28;20418;-65
2022/12/03 06:41:25;;;;;;;26.70;13.70;;;;;;;2.97;100.00;102220.53;5004464;28;20354;-65
2022/12/03 06:43:51;;;;;;;29.98;14.43;;;;;;;2.94;100.00;102220.63;5014638;28;20049;-66
2022/12/03 06:46:18;;;;;;;28.75;13.77;;;;;;;2.96;100.00;102229.22;5013677;28;20054;-65
2022/12/03 06:48:44;;;;;;;30.15;13.30;;;;;;;2.97;100.00;102217.94;5011008;28;20054;-66
2022/12/03 06:51:10;;;;;;;29.63;13.82;;;;;;;2.94;100.00;102207.69;5002068;28;20103;-66
2022/12/03 06:53:37;;;;;;;26.42;13.63;;;;;;;2.99;100.00;102210.94;5011374;28;20049;-66
2022/12/03 06:56:03;;;;;;;27.88;11.95;;;;;;;3.05;100.00;102213.28;5003756;28;20477;-65
2022/12/03 06:58:30;;;;;;;24.85;12.82;;;;;;;3.06;100.00;102216.69;5016423;28;20116;-66
2022/12/03 07:00:56;;;;;;;30.38;12.90;;;;;;;3.07;100.00;102219.22;5003332;28;20071;-66
2022/12/03 07:03:22;;;;;;;29.10;13.20;;;;;;;3.11;100.00;102214.78;5009805;28;20060;-65
2022/12/03 07:05:49;;;;;;;30.42;14.02;;;;;;;3.06;100.00;102217.56;5017680;28;20049;-66
2022/12/03 07:08:16;;;;;;;25.60;13.10;;;;;;;3.05;100.00;102207.25;5005162;28;20060;-66
2022/12/03 07:10:42;;;;;;;28.58;13.82;;;;;;;3.09;100.00;102221.78;5008780;28;20112;-65
2022/12/03 07:13:08;;;;;;;30.75;13.95;;;;;;;3.10;100.00;102224.31;5006820;28;20045;-65
2022/12/03 07:15:35;;;;;;;31.08;13.40;;;;;;;3.11;100.00;102225.97;5013913;28;20509;-64
2022/12/03 07:18:01;;;;;;;30.98;14.40;;;;;;;3.07;100.00;102226.19;5014069;28;20068;-65
2022/12/03 07:20:28;;;;;;;31.30;13.90;;;;;;;3.10;100.00;102226.91;5010244;28;20045;-65
2022/12/03 07:22:54;;;;;;;32.53;14.40;;;;;;;3.09;100.00;102224.34;5018887;28;20054;-66
2022/12/03 07:25:20;;;;;;;34.40;14.27;;;;;;;3.07;100.00;102227.00;4995008;28;20395;-64
2022/12/03 07:27:49;;;;;;;36.45;16.15;;;;;;;3.03;100.00;102224.63;5003919;28;20529;-65
2022/12/03 07:30:15;;;;;;;37.70;16.35;;;;;;;3.01;100.00;102229.84;5008641;28;20050;-65
2022/12/03 07:32:42;;;;;;;39.05;15.98;;;;;;;2.97;100.00;102231.72;5004076;28;20049;-64
2022/12/03 07:35:09;;;;;;;36.58;15.35;;;;;;;2.97;100.00;102236.91;5011337;28;20461;-65
2022/12/03 07:37:35;;;;;;;38.17;16.90;;;;;;;3.00;100.00;102233.38;5015635;28;20057;-64
2022/12/03 07:40:03;;;;;;;38.25;17.05;;;;;;;3.00;100.00;102232.50;5012987;28;20053;-64
2022/12/03 07:42:29;;;;;;;40.38;16.50;;;;;;;2.96;100.00;102239.59;5010569;28;20059;-65
2022/12/03 07:44:55;;;;;;;35.40;16.45;;;;;;;3.00;100.00;102238.56;5021742;28;20049;-65
2022/12/03 07:47:22;;;;;;;36.17;16.27;;;;;;;3.01;100.00;102248.00;5013710;28;20054;-65
2022/12/03 07:49:48;;;;;;;38.38;16.70;;;;;;;3.04;100.00;102236.66;5005144;28;20407;-64
2022/12/03 07:52:15;;;;;;;38.05;15.25;;;;;;;3.06;100.00;102227.94;5010879;28;20049;-65
2022/12/03 07:54:41;;;;;;;38.38;15.75;;;;;;;3.01;100.00;102235.03;5004872;28;20056;-65
2022/12/03 07:57:07;;;;;;;35.50;15.32;;;;;;;3.03;100.00;102241.00;5020610;28;20057;-65
2022/12/03 07:59:34;;;;;;;35.85;15.98;;;;;;;3.02;100.00;102248.84;5015452;28;20091;-65
2022/12/03 08:02:01;;;;;;;36.25;14.98;;;;;;;2.99;100.00;102241.22;5015049;28;20107;-65
2022/12/03 08:04:27;;;;;;;40.20;15.85;;;;;;;3.00;100.00;102250.66;5018908;28;20132;-64
2022/12/03 08:06:54;;;;;;;36.97;15.00;;;;;;;2.95;100.00;102243.06;5003477;28;20141;-64
2022/12/03 08:09:20;;;;;;;38.42;14.93;;;;;;;2.99;100.00;102234.25;5016118;28;20057;-66
2022/12/03 08:11:48;;;;;;;38.05;16.95;;;;;;;3.02;100.00;102249.72;5009563;28;20529;-65
2022/12/03 08:14:17;;;;;;;44.03;18.65;;;;;;;2.97;100.00;102247.28;5020854;28;20770;-66
2022/12/03 08:16:46;;;;;;;44.35;19.67;;;;;;;2.96;100.00;102249.97;5019730;28;20324;-66
2022/12/03 08:19:15;;;;;;;46.90;19.77;;;;;;;2.94;100.00;102238.78;5023444;28;20111;-66
2022/12/03 08:21:41;;;;;;;45.92;19.52;;;;;;;2.97;100.00;102241.25;5019341;28;20061;-66
2022/12/03 08:24:17;;;;;;;48.13;20.45;;;;;;;2.97;100.00;102242.09;5019908;28;20053;-66
2022/12/03 08:26:45;;;;;;;45.85;19.60;;;;;;;2.95;100.00;102243.06;5023855;28;20056;-65
2022/12/03 08:29:17;;;;;;;48.47;18.38;;;;;;;3.00;100.00;102242.88;5016648;28;20061;-66
2022/12/03 08:31:48;;;;;;;47.15;17.73;;;;;;;3.02;100.00;102243.66;5014331;28;20072;-66
2022/12/03 08:34:18;;;;;;;45.78;18.20;;;;;;;2.97;100.00;102247.28;5013019;28;20053;-66
2022/12/03 08:36:46;;;;;;;43.22;17.33;;;;;;;2.94;100.00;102241.38;5009180;28;20430;-65
2022/12/03 08:39:27;;;;;;;42.75;17.52;;;;;;;2.97;100.00;102239.50;5012968;28;20041;-65
2022/12/03 08:44:43;;;;;;;43.75;16.98;;;;;;;2.95;100.00;102243.06;5008688;28;20057;-66
2022/12/03 08:47:21;;;;;;;38.53;15.63;;;;;;;3.01;100.00;102242.00;5012948;28;20084;-65
2022/12/03 08:50:06;;;;;;;40.38;17.08;;;;;;;3.02;100.00;102244.53;5023024;28;20048;-65
2022/12/03 08:52:33;;;;;;;39.00;16.38;;;;;;;2.99;100.00;102233.44;5008123;28;20045;-66
2022/12/03 08:55:29;;;;;;;35.03;15.20;;;;;;;3.03;100.00;102241.00;5020903;28;20045;-65
2022/12/03 08:57:56;;;;;;;35.88;14.43;;;;;;;3.06;100.00;102227.06;5020309;28;20057;-65
2022/12/03 09:00:23;;;;;;;33.20;14.32;;;;;;;3.02;100.00;102236.75;5015979;28;20087;-65
2022/12/03 09:02:52;;;;;;;29.27;12.43;;;;;;;3.04;100.00;102224.56;5024226;28;20458;-65
2022/12/03 09:05:21;;;;;;;34.17;14.13;;;;;;;2.99;100.00;102231.69;5018622;28;20475;-66
2022/12/03 09:07:48;;;;;;;32.38;13.10;;;;;;;3.05;100.00;102225.41;5019478;28;20045;-65
2022/12/03 09:10:14;;;;;;;30.42;13.23;;;;;;;2.97;100.00;102218.78;5006825;28;20045;-66
2022/12/03 09:12:41;;;;;;;36.05;13.93;;;;;;;2.94;100.00;102225.81;5021505;28;20052;-66
2022/12/03 09:15:07;;;;;;;37.75;14.45;;;;;;;2.92;100.00;102219.84;5011095;28;20061;-66
2022/12/03 09:17:34;;;;;;;34.22;13.98;;;;;;;3.10;100.00;102223.47;5024372;28;20050;-65
2022/12/03 09:20:00;;;;;;;35.00;14.93;;;;;;;3.07;100.00;102215.81;5020497;28;20050;-65
2022/12/03 09:22:27;;;;;;;33.13;13.95;;;;;;;3.06;100.00;102216.69;5014325;28;20056;-65
2022/12/03 09:24:53;;;;;;;30.02;13.60;;;;;;;3.04;100.00;102213.31;5016381;28;20046;-65
2022/12/03 09:27:21;;;;;;;37.72;14.73;;;;;;;3.07;100.00;102219.22;5008375;28;20387;-66
2022/12/03 09:29:49;;;;;;;34.38;14.15;;;;;;;3.09;100.00;102207.03;5020509;28;20049;-66
2022/12/03 09:32:15;;;;;;;39.47;15.98;;;;;;;3.06;100.00;102216.69;5015088;28;20136;-66
2022/12/03 09:34:44;;;;;;;40.85;15.88;;;;;;;3.04;100.00;102224.56;5017653;28;20056;-65
2022/12/03 09:37:10;;;;;;;39.55;16.95;;;;;;;2.96;100.00;102230.06;5025482;28;20049;-66
2022/12/03 09:39:36;;;;;;;45.97;17.27;;;;;;;3.03;100.00;102235.00;5016590;28;20045;-66
2022/12/03 09:42:03;;;;;;;35.75;15.77;;;;;;;3.15;100.00;102230.13;5020390;28;20055;-66
2022/12/03 09:44:32;;;;;;;41.60;16.42;;;;;;;3.14;100.00;102228.44;5005115;28;20049;-66
2022/12/03 09:47:00;;;;;;;38.38;15.45;;;;;;;3.06;100.00;102235.72;5018765;28;20085;-66
2022/12/03 09:49:29;;;;;;;33.30;13.50;;;;;;;3.07;100.00;102227.00;5008475;28;20053;-66
2022/12/03 09:51:57;;;;;;;37.10;14.93;;;;;;;3.03;100.00;102222.88;5021924;28;20053;-65
2022/12/03 09:54:26;;;;;;;33.85;12.98;;;;;;;3.05;100.00;102228.00;5020493;28;20049;-65
2022/12/03 09:56:54;;;;;;;40.20;15.45;;;;;;;3.04;100.00;102223.69;5002623;28;20442;-66
2022/12/03 09:59:24;;;;;;;38.10;15.13;;;;;;;2.96;100.00;102211.91;5021671;28;20059;-66
2022/12/03 10:01:51;;;;;;;39.17;15.45;;;;;;;2.97;100.00;102216.19;5013741;28;20046;-66
2022/12/03 10:04:19;;;;;;;34.17;14.55;;;;;;;3.01;100.00;102214.31;5035187;28;20051;-65
2022/12/03 10:06:46;;;;;;;34.17;14.23;;;;;;;3.00;100.00;102207.44;5021079;28;20129;-66
2022/12/03 10:09:16;;;;;;;36.17;14.05;;;;;;;3.02;100.00;102213.41;5006129;28;20053;-67
2022/12/03 10:11:42;;;;;;;34.97;13.85;;;;;;;3.02;100.00;102204.78;5020370;28;20227;-66
2022/12/03 10:14:12;;;;;;;38.15;14.68;;;;;;;3.03;100.00;102209.91;5013193;28;20062;-66
2022/12/03 10:16:40;;;;;;;35.97;13.55;;;;;;;3.03;100.00;102211.66;5015618;28;20643;-66
2022/12/03 10:19:17;;;;;;;31.58;14.20;;;;;;;3.04;100.00;102215.91;5019848;28;20048;-66
2022/12/03 10:21:43;;;;;;;34.17;13.95;;;;;;;3.01;100.00;102213.47;5029567;28;20049;-66
2022/12/03 10:24:17;;;;;;;36.10;14.40;;;;;;;3.03;100.00;102215.09;5007965;28;20095;-66
2022/12/03 10:26:45;;;;;;;35.03;14.45;;;;;;;2.99;100.00;102210.09;5013879;28;20506;-66
2022/12/03 10:29:26;;;;;;;37.20;16.15;;;;;;;3.02;100.00;102202.19;5027606;28;20115;-66
2022/12/03 10:32:00;;;;;;;41.17;15.27;;;;;;;2.93;100.00;102203.41;5013048;28;20052;-66
2022/12/03 10:34:34;;;;;;;37.60;14.52;;;;;;;2.95;100.00;102199.00;5018242;28;20056;-65
2022/12/03 10:37:18;;;;;;;38.40;15.73;;;;;;;2.92;100.00;102193.94;5018283;28;20053;-66
2022/12/03 10:39:58;;;;;;;31.70;13.68;;;;;;;2.85;100.00;102192.53;5014611;28;20674;-65
2022/12/03 10:42:27;;;;;;;38.85;13.93;;;;;;;2.82;100.00;102183.09;5012004;28;20046;-65
2022/12/03 10:45:17;;;;;;;36.38;14.73;;;;;;;2.82;100.00;102182.28;5015293;28;20107;-66
2022/12/03 10:48:11;;;;;;;38.83;14.10;;;;;;;2.84;100.00;102180.47;5022517;28;20355;-66
2022/12/03 10:50:50;;;;;;;34.08;14.13;;;;;;;2.85;100.00;102170.03;5026701;28;20046;-66
2022/12/03 10:53:18;;;;;;;37.22;15.30;;;;;;;2.90;100.00;102170.69;5024952;28;20050;-66
2022/12/03 10:55:45;;;;;;;32.67;14.18;;;;;;;2.94;100.00;102166.19;5018716;28;20453;-66
2022/12/03 10:58:24;;;;;;;37.97;15.50;;;;;;;2.99;100.00;102166.88;5028489;28;20049;-66
2022/12/03 11:00:52;;;;;;;36.90;15.55;;;;;;;2.99;100.00;102161.69;5015086;28;20050;-65
2022/12/03 11:03:22;;;;;;;34.10;14.52;;;;;;;2.94;100.00;102159.28;5014620;28;20490;-66
2022/12/03 11:05:50;;;;;;;38.92;14.30;;;;;;;2.94;100.00;102151.50;5018279;28;20784;-65
2022/12/03 11:08:23;;;;;;;33.47;14.43;;;;;;;3.01;100.00;102146.06;5018971;28;20052;-66
2022/12/03 11:11:22;;;;;;;32.30;13.57;;;;;;;3.00;100.00;102150.41;5016549;28;20580;-65
2022/12/03 11:13:54;;;;;;;36.17;14.88;;;;;;;2.92;100.00;102142.09;5006953;28;20041;-66
2022/12/03 11:16:38;;;;;;;35.15;13.85;;;;;;;2.99;100.00;102145.28;5032301;28;20095;-66
2022/12/03 11:19:11;;;;;;;29.70;13.82;;;;;;;3.01;100.00;102140.88;5018420;28;20088;-66
2022/12/03 11:21:59;;;;;;;39.75;14.60;;;;;;;2.96;100.00;102139.34;5020602;28;20480;-66
2022/12/03 11:24:25;;;;;;;34.53;14.10;;;;;;;2.95;100.00;102129.84;5012213;28;20045;-66
2022/12/03 11:26:51;;;;;;;34.75;13.38;;;;;;;2.93;100.00;102130.84;5019326;28;20490;-65
2022/12/03 11:29:46;;;;;;;32.25;13.52;;;;;;;2.99;100.00;102125.38;5019359;28;20472;-65
2022/12/03 11:32:38;;;;;;;31.17;11.95;;;;;;;2.95;100.00;102123.84;5022016;28;20060;-66
2022/12/03 11:35:34;;;;;;;32.92;13.68;;;;;;;2.99;100.00;102122.81;5012412;28;20522;-67
2022/12/03 11:38:36;;;;;;;36.65;14.27;;;;;;;2.95;100.00;102129.84;5024906;28;20426;-65
2022/12/03 11:41:23;;;;;;;29.33;12.73;;;;;;;2.89;100.00;102119.75;5005429;28;20041;-66